createdAt,value
2018-05-12T00:01:15.705Z,94877.06
2018-05-12T00:03:44.099Z,94876.48
2018-05-12T00:06:12.562Z,94876.30
2018-05-12T00:08:40.990Z,94875.17
2018-05-12T00:11:09.407Z,94877.05
2018-05-12T00:13:37.844Z,94841.56
2018-05-12T00:16:06.333Z,94882.05
2018-05-12T00:18:34.797Z,94882.42
2018-05-12T00:21:03.194Z,94881.64
2018-05-12T00:23:31.628Z,94877.41
2018-05-12T00:26:00.038Z,94883.78
2018-05-12T00:28:28.476Z,94878.77
2018-05-12T00:30:56.869Z,94879.74
2018-05-12T00:33:25.324Z,94875.38
2018-05-12T00:35:53.739Z,94878.37
2018-05-12T00:38:22.133Z,94879.77
2018-05-12T00:40:50.581Z,94880.12
2018-05-12T00:43:18.977Z,94872.91
2018-05-12T00:45:47.429Z,94868.59
2018-05-12T00:48:15.825Z,94876.39
2018-05-12T00:50:44.348Z,94871.99
2018-05-12T00:53:12.753Z,94877.22
2018-05-12T00:55:41.213Z,94879.30
2018-05-12T00:58:09.604Z,94885.25
2018-05-12T01:00:38.176Z,94881.08
2018-05-12T01:03:06.645Z,94873.22
2018-05-12T01:05:35.061Z,94880.44
2018-05-12T01:08:03.515Z,94871.74
2018-05-12T01:10:31.915Z,94875.58
2018-05-12T01:13:00.330Z,94874.05
2018-05-12T01:15:28.806Z,94867.60
2018-05-12T01:17:57.244Z,94854.23
2018-05-12T01:20:25.646Z,94854.52
2018-05-12T01:22:54.092Z,94860.11
2018-05-12T01:25:22.529Z,94861.09
2018-05-12T01:27:50.970Z,94866.38
2018-05-12T01:30:19.377Z,94857.13
2018-05-12T01:32:47.769Z,94853.89
2018-05-12T01:35:16.213Z,94854.47
2018-05-12T01:37:44.595Z,94859.62
2018-05-12T01:40:13.018Z,94866.70
2018-05-12T01:42:41.427Z,94857.05
2018-05-12T01:45:09.849Z,94860.73
2018-05-12T01:47:38.299Z,94873.89
2018-05-12T01:50:06.800Z,94884.59
2018-05-12T01:52:35.220Z,94887.16
2018-05-12T01:55:03.647Z,94887.95
2018-05-12T01:57:32.072Z,94885.88
2018-05-12T02:00:00.458Z,94886.27
2018-05-12T02:02:28.932Z,94881.06
2018-05-12T02:04:57.355Z,94882.38
2018-05-12T02:07:25.861Z,94883.75
2018-05-12T02:09:54.291Z,94873.54
2018-05-12T02:12:22.749Z,94875.44
2018-05-12T02:14:51.298Z,94868.36
2018-05-12T02:17:19.721Z,94867.22
2018-05-12T02:19:48.151Z,94859.36
2018-05-12T02:22:16.666Z,94857.06
2018-05-12T02:24:45.136Z,94854.05
2018-05-12T02:27:13.518Z,94858.54
2018-05-12T02:29:41.943Z,94856.94
2018-05-12T02:32:10.403Z,94856.86
2018-05-12T02:34:38.797Z,94852.41
2018-05-12T02:37:07.205Z,94855.41
2018-05-12T02:39:35.655Z,94856.64
2018-05-12T02:42:04.107Z,94834.89
2018-05-12T02:44:32.509Z,94855.77
2018-05-12T02:47:00.931Z,94853.05
2018-05-12T02:49:29.334Z,94852.09
2018-05-12T02:51:57.794Z,94853.78
2018-05-12T02:54:26.192Z,94854.50
2018-05-12T02:56:54.615Z,94865.43
2018-05-12T02:59:23.048Z,94863.77
2018-05-12T03:01:51.447Z,94868.14
2018-05-12T03:04:19.909Z,94862.38
2018-05-12T03:06:48.291Z,94863.27
2018-05-12T03:09:16.723Z,94871.63
2018-05-12T03:11:45.247Z,94871.16
2018-05-12T03:14:13.683Z,94857.02
2018-05-12T03:16:42.306Z,94887.05
2018-05-12T03:19:10.754Z,94878.39
2018-05-12T03:21:39.752Z,94874.97
2018-05-12T03:24:08.958Z,94873.38
2018-05-12T03:26:38.101Z,94870.93
2018-05-12T03:29:06.563Z,94863.89
2018-05-12T03:31:35.002Z,94863.70
2018-05-12T03:34:03.423Z,94867.17
2018-05-12T03:36:31.858Z,94860.76
2018-05-12T03:39:00.268Z,94855.80
2018-05-12T03:41:28.713Z,94865.36
2018-05-12T03:43:57.106Z,94861.00
2018-05-12T03:46:25.533Z,94867.44
2018-05-12T03:48:54.002Z,94871.46
2018-05-12T03:51:22.439Z,94862.45
2018-05-12T03:53:50.831Z,94862.00
2018-05-12T03:56:19.282Z,94856.23
2018-05-12T03:58:47.731Z,94860.42
2018-05-12T04:01:16.107Z,94868.42
2018-05-12T04:03:44.563Z,94867.32
2018-05-12T04:06:24.853Z,94874.12
2018-05-12T04:09:06.161Z,94874.60
2018-05-12T04:11:46.410Z,94876.86
2018-05-12T04:14:14.885Z,94880.77
2018-05-12T04:16:43.283Z,94880.13
2018-05-12T04:19:11.683Z,94879.02
2018-05-12T04:21:40.129Z,94886.46
2018-05-12T04:24:08.568Z,94888.50
2018-05-12T04:26:37.071Z,94887.55
2018-05-12T04:29:05.495Z,94883.84
2018-05-12T04:31:33.982Z,94881.22
2018-05-12T04:34:02.375Z,94883.62
2018-05-12T04:36:30.771Z,94890.22
2018-05-12T04:38:59.218Z,94882.42
2018-05-12T04:41:27.625Z,94878.48
2018-05-12T04:43:56.037Z,94874.11
2018-05-12T04:46:24.576Z,94873.45
2018-05-12T04:48:53.070Z,94871.03
2018-05-12T04:51:21.503Z,94873.77
2018-05-12T04:53:49.939Z,94876.88
2018-05-12T04:56:18.394Z,94876.23
2018-05-12T04:58:46.847Z,94868.08
2018-05-12T05:01:15.330Z,94867.16
2018-05-12T05:03:43.744Z,94866.39
2018-05-12T05:06:12.203Z,94862.23
2018-05-12T05:08:40.613Z,94866.17
2018-05-12T05:11:09.076Z,94857.88
2018-05-12T05:13:37.480Z,94864.36
2018-05-12T05:16:05.871Z,94862.04
2018-05-12T05:18:34.332Z,94857.77
2018-05-12T05:21:02.874Z,94852.07
2018-05-12T05:23:31.304Z,94859.95
2018-05-12T05:25:59.711Z,94854.94
2018-05-12T05:28:28.155Z,94834.31
2018-05-12T05:30:56.596Z,94824.17
2018-05-12T05:33:25.540Z,94842.85
2018-05-12T05:35:53.967Z,94851.14
2018-05-12T05:38:22.360Z,94831.31
2018-05-12T05:40:51.231Z,94849.89
2018-05-12T05:43:19.638Z,94853.72
2018-05-12T05:45:48.033Z,94867.75
2018-05-12T05:48:16.842Z,94864.61
2018-05-12T05:50:45.278Z,94872.88
2018-05-12T05:53:13.687Z,94865.19
2018-05-12T05:55:42.459Z,94864.33
2018-05-12T05:58:10.869Z,94865.62
2018-05-12T06:00:39.275Z,94859.99
2018-05-12T06:03:07.714Z,94859.78
2018-05-12T06:05:36.119Z,94853.95
2018-05-12T06:08:04.615Z,94864.73
2018-05-12T06:10:33.098Z,94862.41
2018-05-12T06:13:01.516Z,94863.11
2018-05-12T06:15:29.925Z,94859.62
2018-05-12T06:17:58.782Z,94854.66
2018-05-12T06:20:27.168Z,94863.28
2018-05-12T06:22:55.594Z,94859.73
2018-05-12T06:25:24.164Z,94859.94
2018-05-12T06:27:52.612Z,94861.75
2018-05-12T06:30:21.036Z,94853.34
2018-05-12T06:32:49.683Z,94857.30
2018-05-12T06:35:18.096Z,94855.19
2018-05-12T06:37:46.511Z,94849.95
2018-05-12T06:40:15.436Z,94848.17
2018-05-12T06:42:43.871Z,94844.70
2018-05-12T06:45:12.251Z,94843.53
2018-05-12T06:47:41.208Z,94839.98
2018-05-12T06:50:09.592Z,94838.01
2018-05-12T06:52:38.201Z,94833.89
2018-05-12T06:55:06.959Z,94836.65
2018-05-12T06:57:35.468Z,94843.30
2018-05-12T07:00:03.902Z,94832.47
2018-05-12T07:02:32.369Z,94831.17
2018-05-12T07:05:00.794Z,94831.63
2018-05-12T07:07:29.227Z,94829.27
2018-05-12T07:09:58.150Z,94834.67
2018-05-12T07:12:26.575Z,94830.23
2018-05-12T07:14:54.959Z,94828.86
2018-05-12T07:17:23.705Z,94830.00
2018-05-12T07:19:52.370Z,94824.84
2018-05-12T07:22:20.869Z,94829.99
2018-05-12T07:24:49.615Z,94825.23
2018-05-12T07:27:18.016Z,94817.17
2018-05-12T07:29:46.429Z,94818.08
2018-05-12T07:32:15.009Z,94816.38
2018-05-12T07:34:43.398Z,94795.55
2018-05-12T07:37:11.831Z,94810.98
2018-05-12T07:39:40.456Z,94794.67
2018-05-12T07:42:08.886Z,94799.84
2018-05-12T07:44:37.280Z,94810.06
2018-05-12T07:47:06.118Z,94808.48
2018-05-12T07:49:34.516Z,94782.18
2018-05-12T07:52:02.920Z,94804.52
2018-05-12T07:54:31.344Z,94796.71
2018-05-12T07:56:59.739Z,94795.51
2018-05-12T07:59:28.290Z,94789.19
2018-05-12T08:01:57.077Z,94786.30
2018-05-12T08:04:25.522Z,94782.99
2018-05-12T08:06:53.950Z,94778.58
2018-05-12T08:09:22.569Z,94784.89
2018-05-12T08:11:50.971Z,94774.27
2018-05-12T08:14:19.375Z,94781.15
2018-05-12T08:16:47.787Z,94780.28
2018-05-12T08:19:16.197Z,94778.02
2018-05-12T08:21:44.575Z,94778.59
2018-05-12T08:24:13.333Z,94775.66
2018-05-12T08:26:41.723Z,94768.10
2018-05-12T08:29:10.196Z,94766.87
2018-05-12T08:31:39.017Z,94762.58
2018-05-12T08:34:07.411Z,94765.87
2018-05-12T08:36:35.824Z,94761.11
2018-05-12T08:39:04.294Z,94766.95
2018-05-12T08:41:32.700Z,94759.02
2018-05-12T08:44:01.099Z,94754.09
2018-05-12T08:46:29.979Z,94752.58
2018-05-12T08:48:58.511Z,94728.53
2018-05-12T08:51:27.035Z,94745.07
2018-05-12T08:53:55.617Z,94750.91
2018-05-12T08:56:24.116Z,94740.17
2018-05-12T08:58:52.540Z,94741.92
2018-05-12T09:01:20.965Z,94747.55
2018-05-12T09:03:49.362Z,94741.50
2018-05-12T09:06:17.790Z,94739.34
2018-05-12T09:08:46.412Z,94718.50
2018-05-12T09:11:14.818Z,94731.77
2018-05-12T09:13:43.175Z,94723.77
2018-05-12T09:16:11.577Z,94720.80
2018-05-12T09:18:39.953Z,94727.47
2018-05-12T09:21:08.347Z,94718.41
2018-05-12T09:23:37.080Z,94724.80
2018-05-12T09:26:05.519Z,94719.42
2018-05-12T09:28:33.922Z,94716.89
2018-05-12T09:31:02.743Z,94716.06
2018-05-12T09:33:31.179Z,94722.55
2018-05-12T09:35:59.607Z,94721.15
2018-05-12T09:38:28.291Z,94675.44
2018-05-12T09:40:56.671Z,94704.17
2018-05-12T09:43:25.059Z,94704.69
2018-05-12T09:45:53.741Z,94695.14
2018-05-12T09:48:22.140Z,94701.31
2018-05-12T09:50:50.579Z,94692.36
2018-05-12T09:53:19.492Z,94689.00
2018-05-12T09:55:47.903Z,94687.48
2018-05-12T09:58:16.312Z,94673.19
2018-05-12T10:00:45.148Z,94667.17
2018-05-12T10:03:13.577Z,94673.23
2018-05-12T10:05:41.974Z,94677.33
2018-05-12T10:08:10.523Z,94667.73
2018-05-12T10:10:38.935Z,94665.30
2018-05-12T10:13:07.342Z,94665.56
2018-05-12T10:15:35.828Z,94662.41
2018-05-12T10:18:04.218Z,94656.20
2018-05-12T10:20:32.864Z,94645.72
2018-05-12T10:23:01.689Z,94645.16
2018-05-12T10:25:30.468Z,94642.33
2018-05-12T10:27:59.255Z,94639.77
2018-05-12T10:30:28.148Z,94638.30
2018-05-12T10:32:56.938Z,94634.49
2018-05-12T10:35:25.724Z,94621.73
2018-05-12T10:37:54.515Z,94620.86
2018-05-12T10:40:23.303Z,94624.44
2018-05-12T10:42:52.159Z,94613.83
2018-05-12T10:45:21.472Z,94611.31
2018-05-12T10:47:50.269Z,94604.95
2018-05-12T10:50:18.969Z,94608.42
2018-05-12T10:52:49.270Z,94607.04
2018-05-12T10:55:17.985Z,94601.52
2018-05-12T10:57:46.674Z,94592.58
2018-05-12T11:00:15.669Z,94590.59
2018-05-12T11:02:44.457Z,94582.00
2018-05-12T11:05:13.347Z,94577.78
2018-05-12T11:07:42.036Z,94578.09
2018-05-12T11:10:10.660Z,94589.86
2018-05-12T11:12:39.097Z,94585.04
2018-05-12T11:15:07.967Z,94584.43
2018-05-12T11:17:36.416Z,94573.77
2018-05-12T11:20:04.951Z,94571.38
2018-05-12T11:22:33.862Z,94579.27
2018-05-12T11:25:02.283Z,94569.95
2018-05-12T11:27:30.803Z,94576.84
2018-05-12T11:29:59.266Z,94557.34
2018-05-12T11:32:27.709Z,94575.17
2018-05-12T11:37:29.948Z,94557.83
2018-05-12T11:39:58.391Z,94560.20
2018-05-12T11:42:26.754Z,94553.09
2018-05-12T11:44:55.189Z,94555.92
2018-05-12T11:47:23.595Z,94553.84
2018-05-12T11:49:52.000Z,94542.44
2018-05-12T11:52:20.772Z,94552.58
2018-05-12T11:54:49.195Z,94547.61
2018-05-12T11:57:17.586Z,94537.89
2018-05-12T11:59:46.302Z,94535.39
2018-05-12T12:02:14.714Z,94541.38
2018-05-12T12:04:43.147Z,94547.90
2018-05-12T12:07:11.637Z,94536.08
2018-05-12T12:09:40.033Z,94531.88
2018-05-12T12:12:08.578Z,94535.85
2018-05-12T12:14:37.037Z,94528.77
2018-05-12T12:17:05.476Z,94514.48
2018-05-12T12:19:33.892Z,94509.64
2018-05-12T12:22:02.682Z,94511.09
2018-05-12T12:24:31.097Z,94510.26
2018-05-12T12:26:59.608Z,94509.07
2018-05-12T12:29:28.699Z,94518.09
2018-05-12T12:31:57.393Z,94528.55
2018-05-12T12:34:25.873Z,94545.48
2018-05-12T12:36:54.405Z,94557.77
2018-05-12T12:39:22.934Z,94545.72
2018-05-12T12:41:51.422Z,94566.85
2018-05-12T12:44:20.431Z,94559.13
2018-05-12T12:46:49.098Z,94551.25
2018-05-12T12:49:17.787Z,94553.97
2018-05-12T12:51:46.818Z,94543.55
2018-05-12T12:54:15.363Z,94535.27
2018-05-12T12:56:44.052Z,94526.70
2018-05-12T12:59:12.637Z,94531.69
2018-05-12T13:01:41.099Z,94529.20
2018-05-12T13:04:09.502Z,94518.91
2018-05-12T13:06:38.310Z,94506.13
2018-05-12T13:09:06.724Z,94515.93
2018-05-12T13:11:35.312Z,94492.21
2018-05-12T13:14:04.164Z,94505.08
2018-05-12T13:16:32.567Z,94498.19
2018-05-12T13:19:00.941Z,94497.47
2018-05-12T13:21:29.724Z,94470.01
2018-05-12T13:23:58.118Z,94487.69
2018-05-12T13:26:26.652Z,94477.27
2018-05-12T13:28:55.470Z,94474.39
2018-05-12T13:31:23.962Z,94464.33
2018-05-12T13:33:52.433Z,94448.69
2018-05-12T13:36:20.848Z,94447.47
2018-05-12T13:38:49.257Z,94439.69
2018-05-12T13:41:17.656Z,94432.69
2018-05-12T13:43:46.487Z,94436.98
2018-05-12T13:46:14.906Z,94446.38
2018-05-12T13:48:43.328Z,94456.30
2018-05-12T13:51:12.213Z,94456.95
2018-05-12T13:53:40.670Z,94461.20
2018-05-12T13:56:09.088Z,94458.38
2018-05-12T13:58:37.584Z,94439.88
2018-05-12T14:01:05.993Z,94460.23
2018-05-12T14:03:34.504Z,94459.20
2018-05-12T14:06:02.931Z,94458.67
2018-05-12T14:08:31.372Z,94455.92
2018-05-12T14:10:59.787Z,94457.73
2018-05-12T14:13:28.647Z,94468.78
2018-05-12T14:15:57.011Z,94474.98
2018-05-12T14:18:25.439Z,94483.42
2018-05-12T14:20:53.893Z,94483.75
2018-05-12T14:23:22.427Z,94491.59
2018-05-12T14:25:50.838Z,94502.91
2018-05-12T14:28:19.467Z,94497.52
2018-05-12T14:30:47.893Z,94505.91
2018-05-12T14:33:16.326Z,94505.84
2018-05-12T14:35:45.109Z,94503.26
2018-05-12T14:38:13.531Z,94501.45
2018-05-12T14:40:42.031Z,94495.05
2018-05-12T14:43:10.781Z,94504.86
2018-05-12T14:45:39.191Z,94510.09
2018-05-12T14:48:07.625Z,94518.27
2018-05-12T14:50:36.291Z,94516.34
2018-05-12T14:53:04.691Z,94518.66
2018-05-12T14:55:33.111Z,94507.75
2018-05-12T14:58:01.548Z,94502.08
2018-05-12T15:00:29.957Z,94507.48
2018-05-12T15:02:58.376Z,94511.46
2018-05-12T15:05:26.989Z,94506.30
2018-05-12T15:07:55.418Z,94515.58
2018-05-12T15:10:23.807Z,94509.70
2018-05-12T15:12:52.646Z,94533.27
2018-05-12T15:15:21.111Z,94538.66
2018-05-12T15:17:49.523Z,94549.00
2018-05-12T15:20:18.333Z,94544.09
2018-05-12T15:22:46.759Z,94542.63
2018-05-12T15:25:15.160Z,94522.89
2018-05-12T15:27:43.647Z,94528.34
2018-05-12T15:30:12.031Z,94537.88
2018-05-12T15:32:40.461Z,94539.03
2018-05-12T15:35:09.333Z,94544.09
2018-05-12T15:37:37.843Z,94539.95
2018-05-12T15:40:06.222Z,94545.17
2018-05-12T15:42:34.666Z,94546.34
2018-05-12T15:45:03.110Z,94525.81
2018-05-12T15:47:31.543Z,94540.57
2018-05-12T15:50:00.473Z,94543.23
2018-05-12T15:52:29.342Z,94542.01
2018-05-12T15:54:57.767Z,94540.16
2018-05-12T15:57:26.645Z,94544.20
2018-05-12T15:59:55.101Z,94536.05
2018-05-12T16:02:23.503Z,94538.03
2018-05-12T16:04:52.304Z,94540.16
2018-05-12T16:07:20.836Z,94542.87
2018-05-12T16:09:49.264Z,94536.30
2018-05-12T16:12:18.131Z,94543.33
2018-05-12T16:14:46.478Z,94541.29
2018-05-12T16:17:15.110Z,94541.22
2018-05-12T16:19:43.552Z,94541.97
2018-05-12T16:22:11.948Z,94536.58
2018-05-12T16:24:40.360Z,94541.27
2018-05-12T16:27:09.139Z,94545.86
2018-05-12T16:29:37.572Z,94548.97
2018-05-12T16:32:05.971Z,94552.53
2018-05-12T16:34:34.532Z,94558.98
2018-05-12T16:39:37.879Z,94562.00
2018-05-12T16:42:06.280Z,94572.70
2018-05-12T16:44:34.694Z,94576.91
2018-05-12T16:47:03.241Z,94577.97
2018-05-12T16:49:31.719Z,94585.00
2018-05-12T16:52:00.084Z,94589.24
2018-05-12T16:54:28.821Z,94585.57
2018-05-12T16:56:57.217Z,94594.97
2018-05-12T16:59:25.607Z,94589.15
2018-05-12T17:01:54.343Z,94594.14
2018-05-12T17:04:22.757Z,94595.99
2018-05-12T17:06:51.156Z,94594.89
2018-05-12T17:09:20.043Z,94602.13
2018-05-12T17:11:48.561Z,94610.11
2018-05-12T17:14:16.985Z,94615.67
2018-05-12T17:16:45.645Z,94610.72
2018-05-12T17:19:14.025Z,94620.05
2018-05-12T17:21:42.426Z,94624.09
2018-05-12T17:24:11.093Z,94627.61
2018-05-12T17:26:39.471Z,94632.55
2018-05-12T17:29:08.032Z,94635.97
2018-05-12T17:31:36.851Z,94636.25
2018-05-12T17:34:05.271Z,94634.48
2018-05-12T17:36:33.755Z,94636.49
2018-05-12T17:39:02.701Z,94630.83
2018-05-12T17:41:31.210Z,94638.56
2018-05-12T17:43:59.611Z,94646.49
2018-05-12T17:46:28.327Z,94649.67
2018-05-12T17:48:56.728Z,94656.64
2018-05-12T17:51:25.128Z,94658.75
2018-05-12T17:53:53.559Z,94663.08
2018-05-12T17:56:21.951Z,94660.71
2018-05-12T17:58:50.350Z,94669.39
2018-05-12T18:01:19.014Z,94667.00
2018-05-12T18:03:47.408Z,94667.94
2018-05-12T18:06:15.823Z,94667.31
2018-05-12T18:08:44.587Z,94672.59
2018-05-12T18:11:12.963Z,94667.94
2018-05-12T18:13:41.423Z,94668.45
2018-05-12T18:16:09.867Z,94668.59
2018-05-12T18:18:38.252Z,94660.70
2018-05-12T18:21:06.703Z,94656.00
2018-05-12T18:23:35.681Z,94658.23
2018-05-12T18:26:04.119Z,94683.73
2018-05-12T18:28:32.502Z,94711.48
2018-05-12T18:31:00.923Z,94657.11
2018-05-12T18:33:29.324Z,94673.66
2018-05-12T18:35:57.760Z,94672.75
2018-05-12T18:38:26.583Z,94680.51
2018-05-12T18:40:54.980Z,94689.95
2018-05-12T18:43:23.356Z,94679.05
2018-05-12T18:45:52.127Z,94679.11
2018-05-12T18:48:20.511Z,94672.55
2018-05-12T18:50:48.904Z,94650.37
2018-05-12T18:53:17.331Z,94661.11
2018-05-12T18:55:45.763Z,94657.06
2018-05-12T18:58:14.147Z,94655.31
2018-05-12T19:00:42.890Z,94645.51
2018-05-12T19:03:11.303Z,94638.33
2018-05-12T19:05:39.723Z,94632.71
2018-05-12T19:08:08.344Z,94629.27
2018-05-12T19:10:36.732Z,94630.06
2018-05-12T19:13:05.145Z,94612.73
2018-05-12T19:15:33.880Z,94611.14
2018-05-12T19:18:02.235Z,94602.36
2018-05-12T19:20:30.631Z,94596.05
2018-05-12T19:22:59.444Z,94588.20
2018-05-12T19:25:27.824Z,94586.75
2018-05-12T19:27:56.177Z,94580.46
2018-05-12T19:30:24.996Z,94578.35
2018-05-12T19:32:53.439Z,94576.65
2018-05-12T19:35:21.809Z,94584.63
2018-05-12T19:37:50.560Z,94581.50
2018-05-12T19:40:18.969Z,94582.03
2018-05-12T19:42:47.342Z,94581.23
2018-05-12T19:45:16.100Z,94587.53
2018-05-12T19:47:44.523Z,94587.72
2018-05-12T19:50:12.916Z,94593.75
2018-05-12T19:52:41.629Z,94600.84
2018-05-12T19:55:10.051Z,94612.25
2018-05-12T19:57:38.511Z,94612.00
2018-05-12T20:00:06.969Z,94605.05
2018-05-12T20:02:35.350Z,94605.17
2018-05-12T20:05:03.778Z,94616.20
2018-05-12T20:07:32.209Z,94619.17
2018-05-12T20:10:00.670Z,94619.69
2018-05-12T20:12:29.064Z,94620.38
2018-05-12T20:14:57.883Z,94615.89
2018-05-12T20:17:26.313Z,94621.58
2018-05-12T20:19:54.726Z,94627.61
2018-05-12T20:22:23.241Z,94641.47
2018-05-12T20:24:51.635Z,94633.55
2018-05-12T20:27:20.071Z,94626.77
2018-05-12T20:29:48.974Z,94626.75
2018-05-12T20:32:17.395Z,94638.13
2018-05-12T20:34:45.894Z,94644.59
2018-05-12T20:37:14.643Z,94640.38
2018-05-12T20:39:43.057Z,94633.40
2018-05-12T20:42:11.468Z,94644.02
2018-05-12T20:44:40.072Z,94639.70
2018-05-12T20:47:08.467Z,94644.17
2018-05-12T20:49:37.992Z,94640.88
2018-05-12T20:52:06.729Z,94646.09
2018-05-12T20:54:35.123Z,94646.98
2018-05-12T20:57:03.523Z,94654.14
2018-05-12T20:59:32.311Z,94655.30
2018-05-12T21:02:00.720Z,94653.44
2018-05-12T21:04:29.138Z,94661.70
2018-05-12T21:06:57.939Z,94662.78
2018-05-12T21:09:26.331Z,94674.30
2018-05-12T21:11:54.748Z,94664.69
2018-05-12T21:14:23.250Z,94675.48
2018-05-12T21:16:51.603Z,94669.45
2018-05-12T21:19:20.003Z,94661.72
2018-05-12T21:21:48.419Z,94679.17
2018-05-12T21:24:16.812Z,94670.83
2018-05-12T21:26:45.207Z,94666.44
2018-05-12T21:29:13.628Z,94668.16
2018-05-12T21:31:42.048Z,94669.42
2018-05-12T21:34:10.485Z,94677.70
2018-05-12T21:36:38.891Z,94685.27
2018-05-12T21:39:07.312Z,94688.81
2018-05-12T21:41:35.715Z,94688.72
2018-05-12T21:44:04.561Z,94676.58
2018-05-12T21:46:32.940Z,94665.48
2018-05-12T21:49:01.305Z,94668.86
2018-05-12T21:51:30.041Z,94585.00
2018-05-12T21:53:58.428Z,94659.06
2018-05-12T21:56:26.803Z,94659.64
2018-05-12T21:58:55.313Z,94665.00
2018-05-12T22:01:23.693Z,94658.73
2018-05-12T22:03:52.083Z,94657.44
2018-05-12T22:06:20.522Z,94657.84
2018-05-12T22:08:48.959Z,94646.27
2018-05-12T22:11:17.397Z,94641.72
2018-05-12T22:13:45.923Z,94664.31
2018-05-12T22:16:14.328Z,94668.73
2018-05-12T22:18:42.820Z,94656.63
2018-05-12T22:21:11.219Z,94656.63
2018-05-12T22:23:39.736Z,94676.18
2018-05-12T22:26:08.171Z,94651.99
2018-05-12T22:28:36.579Z,94674.31
2018-05-12T22:31:04.974Z,94683.13
2018-05-12T22:33:33.396Z,94672.15
2018-05-12T22:36:01.808Z,94664.61
2018-05-12T22:38:30.236Z,94672.91
2018-05-12T22:40:58.711Z,94670.54
2018-05-12T22:43:27.125Z,94674.97
2018-05-12T22:45:55.557Z,94680.22
2018-05-12T22:48:23.948Z,94687.47
2018-05-12T22:50:52.396Z,94689.92
2018-05-12T22:53:20.871Z,94692.70
2018-05-12T22:55:49.296Z,94685.64
2018-05-12T22:58:17.730Z,94698.13
2018-05-12T23:00:46.133Z,94701.77
2018-05-12T23:03:14.617Z,94706.24
2018-05-12T23:05:43.075Z,94696.54
2018-05-12T23:08:11.486Z,94664.78
2018-05-12T23:10:39.924Z,94602.05
2018-05-12T23:13:08.378Z,94591.26
2018-05-12T23:15:36.768Z,94578.31
2018-05-12T23:18:05.241Z,94563.09
2018-05-12T23:20:33.633Z,94574.86
2018-05-12T23:23:02.031Z,94563.42
2018-05-12T23:25:30.468Z,94557.88
2018-05-12T23:27:58.866Z,94570.30
2018-05-12T23:30:27.296Z,94573.63
2018-05-12T23:32:55.688Z,94575.93
2018-05-12T23:35:24.121Z,94572.81
2018-05-12T23:37:52.636Z,94572.20
2018-05-12T23:40:21.031Z,94569.70
2018-05-12T23:42:49.471Z,94574.89
2018-05-12T23:45:17.880Z,94580.10
2018-05-12T23:47:46.312Z,94577.55
2018-05-12T23:50:14.739Z,94578.82
2018-05-12T23:52:43.175Z,94579.20
2018-05-12T23:55:11.580Z,94579.09
2018-05-12T23:57:40.099Z,94577.97
